KOR6767 RJCC-RJFK
Flight info
| Callsign | KOR6767 |
|---|---|
| Flight time | 2h 17m |
| Altitude | 38000 |
| Route | DALBI Y120 TAPPI Y12 ARIKA Y14 GOLDO Y381 KMC Y382 WAKIT Y282 POPPY V53 SUC Y757 SPICA |
| Aircraft | B38M/M-SDE1FGHILORVWXY/HB1 |
Departure
| Time | 2026-04-21 13:21 |
|---|---|
| Airport | New Chitose Airport (RJCC) |
Arrival
| Time | 2026-04-21 15:39 |
|---|---|
| Airport | Kagoshima Airport (RJFK) |
| Time | Latitude | Longitude | Altitude | Speed | Heading |
|---|---|---|---|---|---|
| 2026-04-21 12:49 | 42.79007 | 141.68047 | 88 ft | 0 kts | 206° |
| 2026-04-21 13:13 | 42.79009 | 141.68048 | 88 ft | 2 kts | 206° |
| 2026-04-21 13:13 | 42.79021 | 141.68056 | 89 ft | 2 kts | 207° |
| 2026-04-21 13:13 | 42.79033 | 141.68065 | 90 ft | 2 kts | 208° |
| 2026-04-21 13:13 | 42.79045 | 141.68074 | 92 ft | 2 kts | 207° |
| 2026-04-21 13:14 | 42.79057 | 141.68082 | 90 ft | 2 kts | 206° |
| 2026-04-21 13:14 | 42.79069 | 141.68090 | 92 ft | 2 kts | 198° |
| 2026-04-21 13:14 | 42.79081 | 141.68093 | 90 ft | 2 kts | 179° |
| 2026-04-21 13:14 | 42.79092 | 141.68091 | 92 ft | 2 kts | 155° |
| 2026-04-21 13:15 | 42.79101 | 141.68082 | 93 ft | 2 kts | 136° |
| 2026-04-21 13:15 | 42.79108 | 141.68073 | 89 ft | 1 kts | 124° |
| 2026-04-21 13:15 | 42.79111 | 141.68066 | 88 ft | 1 kts | 120° |
| 2026-04-21 13:15 | 42.79114 | 141.68059 | 90 ft | 1 kts | 116° |
| 2026-04-21 13:16 | 42.79116 | 141.68053 | 91 ft | 1 kts | 113° |
| 2026-04-21 13:16 | 42.79118 | 141.68046 | 90 ft | 1 kts | 111° |
| 2026-04-21 13:16 | 42.79118 | 141.68044 | 89 ft | 1 kts | 110° |
| 2026-04-21 13:16 | 42.79116 | 141.68053 | 91 ft | 0 kts | 110° |
| 2026-04-21 13:17 | 42.79115 | 141.68056 | 89 ft | 2 kts | 110° |
| 2026-04-21 13:17 | 42.79112 | 141.68067 | 92 ft | 2 kts | 110° |
| 2026-04-21 13:17 | 42.79105 | 141.68091 | 90 ft | 3 kts | 114° |
| 2026-04-21 13:17 | 42.79093 | 141.68127 | 92 ft | 5 kts | 114° |
| 2026-04-21 13:18 | 42.79083 | 141.68177 | 93 ft | 6 kts | 93° |
| 2026-04-21 13:18 | 42.79100 | 141.68242 | 92 ft | 11 kts | 51° |
| 2026-04-21 13:18 | 42.79134 | 141.68347 | 91 ft | 14 kts | 103° |
| 2026-04-21 13:18 | 42.79048 | 141.68464 | 92 ft | 20 kts | 145° |
| 2026-04-21 13:19 | 42.78960 | 141.68547 | 92 ft | 14 kts | 121° |
| 2026-04-21 13:19 | 42.78941 | 141.68678 | 93 ft | 15 kts | 101° |
| 2026-04-21 13:19 | 42.78880 | 141.68765 | 93 ft | 13 kts | 142° |
| 2026-04-21 13:19 | 42.78795 | 141.68819 | 95 ft | 2 kts | 175° |
| 2026-04-21 13:20 | 42.78791 | 141.68819 | 93 ft | 0 kts | 172° |
| 2026-04-21 13:20 | 42.78789 | 141.68820 | 94 ft | 2 kts | 172° |
| 2026-04-21 13:20 | 42.78626 | 141.68850 | 94 ft | 61 kts | 173° |
| 2026-04-21 13:21 | 42.77919 | 141.68976 | 87 ft | 142 kts | 173° |
| 2026-04-21 13:21 | 42.76770 | 141.69163 | 483 ft | 179 kts | 173° |
| 2026-04-21 13:21 | 42.75556 | 141.69346 | 1806 ft | 168 kts | 178° |
| 2026-04-21 13:21 | 42.74326 | 141.69539 | 2514 ft | 197 kts | 180° |
| 2026-04-21 13:22 | 42.72878 | 141.69782 | 3045 ft | 226 kts | 180° |
| 2026-04-21 13:22 | 42.71205 | 141.70056 | 3555 ft | 256 kts | 180° |
| 2026-04-21 13:22 | 42.69423 | 141.70352 | 4708 ft | 254 kts | 180° |
| 2026-04-21 13:22 | 42.67715 | 141.70689 | 6079 ft | 249 kts | 183° |
| 2026-04-21 13:23 | 42.65994 | 141.70447 | 6696 ft | 249 kts | 212° |
| 2026-04-21 13:23 | 42.64587 | 141.69142 | 7451 ft | 247 kts | 236° |
| 2026-04-21 13:23 | 42.63673 | 141.67181 | 8373 ft | 243 kts | 250° |
| 2026-04-21 13:23 | 42.62974 | 141.65114 | 9550 ft | 241 kts | 251° |
| 2026-04-21 13:24 | 42.62209 | 141.63050 | 10457 ft | 249 kts | 249° |
| 2026-04-21 13:24 | 42.61343 | 141.60933 | 11066 ft | 266 kts | 247° |
| 2026-04-21 13:24 | 42.60360 | 141.58704 | 11577 ft | 285 kts | 245° |
| 2026-04-21 13:24 | 42.59269 | 141.56347 | 11988 ft | 304 kts | 244° |
| 2026-04-21 13:25 | 42.58089 | 141.53861 | 12392 ft | 322 kts | 244° |
| 2026-04-21 13:25 | 42.56832 | 141.51263 | 12861 ft | 335 kts | 244° |
| 2026-04-21 13:25 | 42.55543 | 141.48608 | 13641 ft | 337 kts | 244° |
| 2026-04-21 13:25 | 42.54261 | 141.45947 | 14425 ft | 338 kts | 244° |
| 2026-04-21 13:26 | 42.52976 | 141.43286 | 15086 ft | 342 kts | 244° |
| 2026-04-21 13:26 | 42.51653 | 141.40547 | 15819 ft | 344 kts | 244° |
| 2026-04-21 13:26 | 42.50357 | 141.37864 | 16503 ft | 346 kts | 244° |
| 2026-04-21 13:26 | 42.49032 | 141.35124 | 17180 ft | 349 kts | 244° |
| 2026-04-21 13:27 | 42.47697 | 141.32364 | 17854 ft | 351 kts | 245° |
| 2026-04-21 13:27 | 42.46354 | 141.29592 | 18435 ft | 354 kts | 245° |
| 2026-04-21 13:27 | 42.44998 | 141.26793 | 18980 ft | 357 kts | 245° |
| 2026-04-21 13:27 | 42.43631 | 141.23976 | 19513 ft | 359 kts | 245° |
| 2026-04-21 13:28 | 42.42251 | 141.21134 | 20047 ft | 362 kts | 245° |
| 2026-04-21 13:28 | 42.40864 | 141.18278 | 20581 ft | 365 kts | 245° |
| 2026-04-21 13:28 | 42.39465 | 141.15403 | 21108 ft | 367 kts | 245° |
| 2026-04-21 13:28 | 42.38053 | 141.12501 | 21622 ft | 370 kts | 245° |
| 2026-04-21 13:29 | 42.36631 | 141.09584 | 22133 ft | 372 kts | 245° |
| 2026-04-21 13:29 | 42.35202 | 141.06653 | 22630 ft | 375 kts | 245° |
| 2026-04-21 13:29 | 42.33761 | 141.03700 | 23120 ft | 378 kts | 246° |
| 2026-04-21 13:29 | 42.32308 | 141.00729 | 23531 ft | 380 kts | 246° |
| 2026-04-21 13:30 | 42.30851 | 140.97751 | 23966 ft | 381 kts | 245° |
| 2026-04-21 13:30 | 42.29382 | 140.94748 | 24310 ft | 385 kts | 245° |
| 2026-04-21 13:30 | 42.27898 | 140.91720 | 24695 ft | 387 kts | 245° |
| 2026-04-21 13:30 | 42.26409 | 140.88684 | 25082 ft | 389 kts | 245° |
| 2026-04-21 13:31 | 42.24906 | 140.85622 | 25438 ft | 391 kts | 245° |
| 2026-04-21 13:31 | 42.23399 | 140.82557 | 25805 ft | 393 kts | 245° |
| 2026-04-21 13:31 | 42.21881 | 140.79471 | 26168 ft | 396 kts | 245° |
| 2026-04-21 13:31 | 42.20356 | 140.76372 | 26496 ft | 398 kts | 245° |
| 2026-04-21 13:32 | 42.18821 | 140.73258 | 26896 ft | 399 kts | 245° |
| 2026-04-21 13:32 | 42.17288 | 140.70149 | 27412 ft | 397 kts | 245° |
| 2026-04-21 13:32 | 42.15761 | 140.67055 | 27906 ft | 396 kts | 245° |
| 2026-04-21 13:32 | 42.14258 | 140.64014 | 28407 ft | 394 kts | 245° |
| 2026-04-21 13:33 | 42.12739 | 140.60944 | 28910 ft | 393 kts | 245° |
| 2026-04-21 13:33 | 42.11224 | 140.57886 | 29399 ft | 392 kts | 245° |
| 2026-04-21 13:33 | 42.09657 | 140.54878 | 29860 ft | 397 kts | 239° |
| 2026-04-21 13:33 | 42.07561 | 140.52333 | 30209 ft | 417 kts | 225° |
| 2026-04-21 13:34 | 42.04917 | 140.50530 | 30620 ft | 438 kts | 212° |
| 2026-04-21 13:34 | 42.01959 | 140.49300 | 31046 ft | 441 kts | 210° |
| 2026-04-21 13:34 | 41.99000 | 140.48126 | 31398 ft | 442 kts | 209° |
| 2026-04-21 13:34 | 41.96085 | 140.47002 | 31812 ft | 440 kts | 209° |
| 2026-04-21 13:35 | 41.93137 | 140.45886 | 32199 ft | 440 kts | 209° |
| 2026-04-21 13:35 | 41.90200 | 140.44785 | 32635 ft | 437 kts | 210° |
| 2026-04-21 13:35 | 41.87272 | 140.43692 | 33046 ft | 435 kts | 210° |
| 2026-04-21 13:35 | 41.84361 | 140.42607 | 33478 ft | 433 kts | 210° |
| 2026-04-21 13:36 | 41.81465 | 140.41530 | 33864 ft | 431 kts | 210° |
| 2026-04-21 13:36 | 41.78581 | 140.40459 | 34156 ft | 430 kts | 210° |
| 2026-04-21 13:36 | 41.75693 | 140.39385 | 34369 ft | 432 kts | 210° |
| 2026-04-21 13:36 | 41.72793 | 140.38309 | 34573 ft | 433 kts | 210° |
| 2026-04-21 13:37 | 41.69889 | 140.37232 | 34825 ft | 433 kts | 210° |
| 2026-04-21 13:37 | 41.66979 | 140.36154 | 35032 ft | 434 kts | 209° |
| 2026-04-21 13:37 | 41.64060 | 140.35074 | 35248 ft | 435 kts | 209° |
| 2026-04-21 13:37 | 41.61137 | 140.33993 | 35470 ft | 436 kts | 209° |
| 2026-04-21 13:38 | 41.58204 | 140.32910 | 35671 ft | 438 kts | 209° |
| 2026-04-21 13:38 | 41.55269 | 140.31826 | 35882 ft | 439 kts | 209° |
| 2026-04-21 13:38 | 41.52321 | 140.30739 | 36067 ft | 440 kts | 208° |
| 2026-04-21 13:38 | 41.50367 | 140.30019 | 36226 ft | 439 kts | 208° |
| 2026-04-21 13:39 | 41.47424 | 140.28936 | 36469 ft | 439 kts | 208° |
| 2026-04-21 13:39 | 41.44466 | 140.27848 | 36599 ft | 442 kts | 208° |
| 2026-04-21 13:39 | 41.41502 | 140.26758 | 36796 ft | 442 kts | 208° |
| 2026-04-21 13:39 | 41.38534 | 140.25669 | 37000 ft | 443 kts | 208° |
| 2026-04-21 13:40 | 41.35554 | 140.24576 | 37180 ft | 444 kts | 208° |
| 2026-04-21 13:40 | 41.32576 | 140.23485 | 37360 ft | 445 kts | 208° |
| 2026-04-21 13:40 | 41.28572 | 140.22019 | 37623 ft | 446 kts | 207° |
| 2026-04-21 13:40 | 41.26592 | 140.21295 | 37739 ft | 446 kts | 207° |
| 2026-04-21 13:41 | 41.20604 | 140.19108 | 37837 ft | 445 kts | 207° |
| 2026-04-21 13:41 | 41.14643 | 140.16935 | 37848 ft | 445 kts | 207° |
| 2026-04-21 13:42 | 41.08630 | 140.14850 | 37849 ft | 445 kts | 207° |
| 2026-04-21 13:42 | 41.02647 | 140.12777 | 37846 ft | 444 kts | 207° |
| 2026-04-21 13:43 | 40.96674 | 140.10711 | 37852 ft | 443 kts | 207° |
| 2026-04-21 13:43 | 40.90765 | 140.08670 | 37857 ft | 441 kts | 207° |
| 2026-04-21 13:44 | 40.84837 | 140.06625 | 37863 ft | 440 kts | 208° |
| 2026-04-21 13:44 | 40.78926 | 140.04592 | 37870 ft | 438 kts | 208° |
| 2026-04-21 13:45 | 40.73032 | 140.02567 | 37878 ft | 437 kts | 208° |
| 2026-04-21 13:45 | 40.67146 | 140.00549 | 37881 ft | 436 kts | 208° |
| 2026-04-21 13:46 | 40.61271 | 139.98538 | 37888 ft | 436 kts | 208° |
| 2026-04-21 13:46 | 40.55409 | 139.96535 | 37892 ft | 435 kts | 208° |
| 2026-04-21 13:47 | 40.49550 | 139.94537 | 37897 ft | 435 kts | 209° |
| 2026-04-21 13:47 | 40.43801 | 139.92319 | 37892 ft | 413 kts | 220° |
| 2026-04-21 13:48 | 40.38718 | 139.88931 | 37912 ft | 411 kts | 220° |
| 2026-04-21 13:48 | 40.33671 | 139.85561 | 37906 ft | 409 kts | 221° |
| 2026-04-21 13:49 | 40.28601 | 139.82155 | 37907 ft | 409 kts | 221° |
| 2026-04-21 13:49 | 40.23542 | 139.78759 | 37904 ft | 408 kts | 221° |
| 2026-04-21 13:50 | 40.18485 | 139.75369 | 37915 ft | 408 kts | 221° |
| 2026-04-21 13:50 | 40.13398 | 139.71965 | 37914 ft | 408 kts | 221° |
| 2026-04-21 13:51 | 40.08346 | 139.68590 | 37915 ft | 407 kts | 221° |
| 2026-04-21 13:51 | 40.03274 | 139.65250 | 37916 ft | 408 kts | 221° |
| 2026-04-21 13:52 | 39.98189 | 139.61941 | 37925 ft | 407 kts | 221° |
| 2026-04-21 13:52 | 39.93119 | 139.58643 | 37921 ft | 407 kts | 221° |
| 2026-04-21 13:53 | 39.88054 | 139.55355 | 37922 ft | 406 kts | 222° |
| 2026-04-21 13:53 | 39.83029 | 139.52098 | 37930 ft | 406 kts | 222° |
| 2026-04-21 13:54 | 39.77942 | 139.48806 | 37934 ft | 405 kts | 222° |
| 2026-04-21 13:54 | 39.72919 | 139.45562 | 37935 ft | 405 kts | 222° |
| 2026-04-21 13:55 | 39.68009 | 139.42394 | 37946 ft | 405 kts | 223° |
| 2026-04-21 13:55 | 39.62943 | 139.39132 | 37943 ft | 405 kts | 223° |
| 2026-04-21 13:56 | 39.57894 | 139.35886 | 37946 ft | 405 kts | 223° |
| 2026-04-21 13:56 | 39.52847 | 139.32647 | 37948 ft | 404 kts | 223° |
| 2026-04-21 13:57 | 39.47803 | 139.29415 | 37948 ft | 404 kts | 223° |
| 2026-04-21 13:57 | 39.42803 | 139.26215 | 37946 ft | 403 kts | 223° |
| 2026-04-21 13:58 | 39.37767 | 139.22999 | 37953 ft | 402 kts | 224° |
| 2026-04-21 13:58 | 39.32762 | 139.19807 | 37955 ft | 401 kts | 224° |
| 2026-04-21 13:59 | 39.27764 | 139.16625 | 37956 ft | 400 kts | 224° |
| 2026-04-21 13:59 | 39.22795 | 139.13467 | 37971 ft | 399 kts | 224° |
| 2026-04-21 14:00 | 39.17818 | 139.10308 | 37973 ft | 398 kts | 224° |
| 2026-04-21 14:00 | 39.12843 | 139.07155 | 37976 ft | 398 kts | 224° |
| 2026-04-21 14:01 | 39.07855 | 139.04000 | 37973 ft | 397 kts | 225° |
| 2026-04-21 14:01 | 39.02895 | 139.00867 | 37978 ft | 397 kts | 225° |
| 2026-04-21 14:02 | 38.97940 | 138.97742 | 37973 ft | 397 kts | 225° |
| 2026-04-21 14:03 | 38.90506 | 138.93063 | 37988 ft | 396 kts | 225° |
| 2026-04-21 14:03 | 38.85548 | 138.89949 | 37997 ft | 397 kts | 225° |
| 2026-04-21 14:04 | 38.80588 | 138.86838 | 37998 ft | 397 kts | 225° |
| 2026-04-21 14:04 | 38.75622 | 138.83728 | 38008 ft | 398 kts | 225° |
| 2026-04-21 14:05 | 38.70639 | 138.80613 | 37999 ft | 398 kts | 225° |
| 2026-04-21 14:05 | 38.65656 | 138.77502 | 37999 ft | 399 kts | 225° |
| 2026-04-21 14:06 | 38.60650 | 138.74382 | 38004 ft | 401 kts | 225° |
| 2026-04-21 14:06 | 38.55620 | 138.71251 | 38005 ft | 403 kts | 225° |
| 2026-04-21 14:07 | 38.50569 | 138.68112 | 38009 ft | 405 kts | 225° |
| 2026-04-21 14:07 | 38.45461 | 138.64944 | 38018 ft | 407 kts | 225° |
| 2026-04-21 14:08 | 38.40356 | 138.61782 | 38023 ft | 409 kts | 225° |
| 2026-04-21 14:08 | 38.35214 | 138.58602 | 38031 ft | 412 kts | 224° |
| 2026-04-21 14:09 | 38.30047 | 138.55411 | 38032 ft | 414 kts | 224° |
| 2026-04-21 14:09 | 38.24855 | 138.52211 | 38032 ft | 415 kts | 224° |
| 2026-04-21 14:10 | 38.19640 | 138.49001 | 38035 ft | 417 kts | 224° |
| 2026-04-21 14:10 | 38.14413 | 138.45787 | 38037 ft | 418 kts | 224° |
| 2026-04-21 14:11 | 38.09170 | 138.42569 | 38037 ft | 419 kts | 223° |
| 2026-04-21 14:11 | 38.06719 | 138.40748 | 38033 ft | 390 kts | 237° |
| 2026-04-21 14:11 | 38.04755 | 138.38470 | 38043 ft | 383 kts | 238° |
| 2026-04-21 14:12 | 38.00873 | 138.33846 | 38053 ft | 382 kts | 239° |
| 2026-04-21 14:12 | 37.97050 | 138.29168 | 38051 ft | 381 kts | 240° |
| 2026-04-21 14:13 | 37.93250 | 138.24481 | 38058 ft | 381 kts | 240° |
| 2026-04-21 14:13 | 37.89450 | 138.19792 | 38052 ft | 381 kts | 239° |
| 2026-04-21 14:14 | 37.85652 | 138.15113 | 38057 ft | 381 kts | 239° |
| 2026-04-21 14:14 | 37.82493 | 138.11227 | 38059 ft | 381 kts | 239° |
| 2026-04-21 14:15 | 37.78075 | 138.05798 | 38064 ft | 381 kts | 239° |
| 2026-04-21 14:15 | 37.74887 | 138.01888 | 38059 ft | 380 kts | 239° |
| 2026-04-21 14:16 | 37.71094 | 137.97242 | 38058 ft | 380 kts | 239° |
| 2026-04-21 14:16 | 37.67298 | 137.92599 | 38062 ft | 380 kts | 239° |
| 2026-04-21 14:17 | 37.63500 | 137.87961 | 38061 ft | 380 kts | 238° |
| 2026-04-21 14:17 | 37.59677 | 137.83299 | 38064 ft | 380 kts | 238° |
| 2026-04-21 14:18 | 37.55897 | 137.78696 | 38066 ft | 380 kts | 238° |
| 2026-04-21 14:18 | 37.52092 | 137.74070 | 38069 ft | 380 kts | 238° |
| 2026-04-21 14:19 | 37.48284 | 137.69447 | 38074 ft | 380 kts | 238° |
| 2026-04-21 14:19 | 37.44474 | 137.64829 | 38084 ft | 380 kts | 238° |
| 2026-04-21 14:20 | 37.40659 | 137.60211 | 38073 ft | 381 kts | 238° |
| 2026-04-21 14:20 | 37.36816 | 137.55567 | 38083 ft | 381 kts | 238° |
| 2026-04-21 14:21 | 37.32995 | 137.50955 | 38082 ft | 381 kts | 238° |
| 2026-04-21 14:21 | 37.29166 | 137.46341 | 38083 ft | 382 kts | 237° |
| 2026-04-21 14:22 | 37.25340 | 137.41738 | 38087 ft | 382 kts | 237° |
| 2026-04-21 14:22 | 37.21502 | 137.37127 | 38086 ft | 383 kts | 237° |
| 2026-04-21 14:23 | 37.17650 | 137.32506 | 38083 ft | 384 kts | 237° |
| 2026-04-21 14:23 | 37.13779 | 137.27869 | 38080 ft | 385 kts | 237° |
| 2026-04-21 14:24 | 37.09904 | 137.23234 | 38085 ft | 386 kts | 236° |
| 2026-04-21 14:24 | 37.06017 | 137.18593 | 38089 ft | 386 kts | 236° |
| 2026-04-21 14:25 | 37.02128 | 137.13955 | 38094 ft | 386 kts | 236° |
| 2026-04-21 14:25 | 36.98238 | 137.09323 | 38091 ft | 386 kts | 236° |
| 2026-04-21 14:26 | 36.94341 | 137.04690 | 38103 ft | 387 kts | 236° |
| 2026-04-21 14:26 | 36.90433 | 137.00048 | 38102 ft | 387 kts | 236° |
| 2026-04-21 14:27 | 36.86525 | 136.95414 | 38103 ft | 388 kts | 236° |
| 2026-04-21 14:27 | 36.82608 | 136.90776 | 38102 ft | 388 kts | 236° |
| 2026-04-21 14:28 | 36.78678 | 136.86141 | 38099 ft | 388 kts | 236° |
| 2026-04-21 14:28 | 36.74740 | 136.81498 | 38104 ft | 389 kts | 236° |
| 2026-04-21 14:29 | 36.70805 | 136.76865 | 38117 ft | 390 kts | 236° |
| 2026-04-21 14:29 | 36.66852 | 136.72219 | 38109 ft | 390 kts | 235° |
| 2026-04-21 14:30 | 36.62897 | 136.67577 | 38108 ft | 391 kts | 235° |
| 2026-04-21 14:30 | 36.58932 | 136.62931 | 38106 ft | 391 kts | 235° |
| 2026-04-21 14:31 | 36.54966 | 136.58288 | 38112 ft | 392 kts | 235° |
| 2026-04-21 14:31 | 36.50987 | 136.53639 | 38104 ft | 392 kts | 235° |
| 2026-04-21 14:32 | 36.47009 | 136.48998 | 38103 ft | 393 kts | 235° |
| 2026-04-21 14:32 | 36.43022 | 136.44352 | 38096 ft | 393 kts | 234° |
| 2026-04-21 14:33 | 36.38996 | 136.39737 | 38096 ft | 396 kts | 233° |
| 2026-04-21 14:33 | 36.34888 | 136.35186 | 38095 ft | 396 kts | 233° |
| 2026-04-21 14:34 | 36.30778 | 136.30624 | 38100 ft | 396 kts | 233° |
| 2026-04-21 14:34 | 36.26666 | 136.26064 | 38101 ft | 397 kts | 233° |
| 2026-04-21 14:35 | 36.22553 | 136.21511 | 38112 ft | 397 kts | 233° |
| 2026-04-21 14:35 | 36.18430 | 136.16951 | 38116 ft | 397 kts | 233° |
| 2026-04-21 14:36 | 36.14302 | 136.12398 | 38122 ft | 398 kts | 232° |
| 2026-04-21 14:36 | 36.10164 | 136.07847 | 38135 ft | 397 kts | 232° |
| 2026-04-21 14:37 | 36.06039 | 136.03319 | 38119 ft | 397 kts | 232° |
| 2026-04-21 14:37 | 36.01914 | 135.98795 | 38106 ft | 396 kts | 232° |
| 2026-04-21 14:38 | 35.97792 | 135.94281 | 38113 ft | 395 kts | 232° |
| 2026-04-21 14:38 | 35.93684 | 135.89790 | 38120 ft | 394 kts | 231° |
| 2026-04-21 14:39 | 35.89582 | 135.85312 | 38115 ft | 393 kts | 231° |
| 2026-04-21 14:39 | 35.85489 | 135.80849 | 38117 ft | 393 kts | 231° |
| 2026-04-21 14:40 | 35.81394 | 135.76391 | 38119 ft | 393 kts | 231° |
| 2026-04-21 14:40 | 35.77298 | 135.71938 | 38124 ft | 392 kts | 231° |
| 2026-04-21 14:41 | 35.73206 | 135.67495 | 38116 ft | 392 kts | 230° |
| 2026-04-21 14:41 | 35.69091 | 135.63036 | 38124 ft | 392 kts | 230° |
| 2026-04-21 14:42 | 35.64992 | 135.58597 | 38122 ft | 392 kts | 230° |
| 2026-04-21 14:42 | 35.60892 | 135.54167 | 38112 ft | 392 kts | 230° |
| 2026-04-21 14:43 | 35.56794 | 135.49745 | 38116 ft | 392 kts | 230° |
| 2026-04-21 14:43 | 35.52687 | 135.45319 | 38124 ft | 392 kts | 230° |
| 2026-04-21 14:44 | 35.48589 | 135.40909 | 38114 ft | 392 kts | 230° |
| 2026-04-21 14:44 | 35.44458 | 135.36471 | 38117 ft | 392 kts | 229° |
| 2026-04-21 14:45 | 35.40366 | 135.32079 | 38119 ft | 391 kts | 229° |
| 2026-04-21 14:45 | 35.36269 | 135.27690 | 38122 ft | 391 kts | 229° |
| 2026-04-21 14:46 | 35.32166 | 135.23298 | 38116 ft | 391 kts | 229° |
| 2026-04-21 14:46 | 35.28085 | 135.18938 | 38126 ft | 390 kts | 229° |
| 2026-04-21 14:47 | 35.23992 | 135.14570 | 38127 ft | 390 kts | 229° |
| 2026-04-21 14:47 | 35.19896 | 135.10207 | 38116 ft | 390 kts | 229° |
| 2026-04-21 14:48 | 35.16473 | 135.06562 | 38119 ft | 390 kts | 229° |
| 2026-04-21 14:48 | 35.12376 | 135.02208 | 38115 ft | 390 kts | 229° |
| 2026-04-21 14:49 | 35.08278 | 134.97859 | 38105 ft | 390 kts | 229° |
| 2026-04-21 14:49 | 35.04174 | 134.93506 | 38108 ft | 390 kts | 229° |
| 2026-04-21 14:50 | 35.00277 | 134.88965 | 38104 ft | 388 kts | 231° |
| 2026-04-21 14:50 | 34.96392 | 134.84446 | 38106 ft | 388 kts | 231° |
| 2026-04-21 14:51 | 34.92476 | 134.79905 | 38104 ft | 389 kts | 231° |
| 2026-04-21 14:51 | 34.88551 | 134.75361 | 38110 ft | 389 kts | 231° |
| 2026-04-21 14:52 | 34.84624 | 134.70821 | 38108 ft | 389 kts | 231° |
| 2026-04-21 14:52 | 34.80694 | 134.66283 | 38109 ft | 389 kts | 231° |
| 2026-04-21 14:53 | 34.76531 | 134.61996 | 38111 ft | 393 kts | 227° |
| 2026-04-21 14:53 | 34.72320 | 134.57759 | 38113 ft | 393 kts | 227° |
| 2026-04-21 14:54 | 34.68096 | 134.53496 | 38107 ft | 393 kts | 227° |
| 2026-04-21 14:54 | 34.63903 | 134.49266 | 38106 ft | 393 kts | 227° |
| 2026-04-21 14:55 | 34.59655 | 134.44997 | 38102 ft | 394 kts | 227° |
| 2026-04-21 14:55 | 34.55410 | 134.40766 | 38106 ft | 394 kts | 227° |
| 2026-04-21 14:56 | 34.51169 | 134.36543 | 38108 ft | 395 kts | 227° |
| 2026-04-21 14:57 | 34.42315 | 134.27865 | 38100 ft | 399 kts | 223° |
| 2026-04-21 14:57 | 34.37806 | 134.23922 | 38100 ft | 399 kts | 224° |
| 2026-04-21 14:58 | 34.33335 | 134.19974 | 38104 ft | 399 kts | 224° |
| 2026-04-21 14:58 | 34.28845 | 134.16009 | 38098 ft | 399 kts | 224° |
| 2026-04-21 14:59 | 34.24334 | 134.12042 | 38096 ft | 400 kts | 224° |
| 2026-04-21 14:59 | 34.19809 | 134.08092 | 38094 ft | 400 kts | 223° |
| 2026-04-21 15:00 | 34.15267 | 134.04129 | 38102 ft | 399 kts | 223° |
| 2026-04-21 15:00 | 34.10803 | 134.00242 | 38106 ft | 399 kts | 223° |
| 2026-04-21 15:01 | 34.06433 | 133.96179 | 38129 ft | 391 kts | 230° |
| 2026-04-21 15:01 | 34.02308 | 133.91777 | 38108 ft | 394 kts | 228° |
| 2026-04-21 15:02 | 33.98165 | 133.87454 | 38106 ft | 394 kts | 227° |
| 2026-04-21 15:02 | 33.94009 | 133.83134 | 38109 ft | 394 kts | 227° |
| 2026-04-21 15:03 | 33.89853 | 133.78821 | 38107 ft | 394 kts | 227° |
| 2026-04-21 15:03 | 33.86361 | 133.75203 | 38102 ft | 395 kts | 227° |
| 2026-04-21 15:04 | 33.82197 | 133.70892 | 38094 ft | 395 kts | 227° |
| 2026-04-21 15:04 | 33.78029 | 133.66584 | 38092 ft | 395 kts | 227° |
| 2026-04-21 15:05 | 33.73861 | 133.62280 | 38089 ft | 395 kts | 227° |
| 2026-04-21 15:05 | 33.67593 | 133.55821 | 38073 ft | 396 kts | 227° |
| 2026-04-21 15:06 | 33.63410 | 133.51515 | 38081 ft | 396 kts | 227° |
| 2026-04-21 15:06 | 33.59220 | 133.47210 | 38062 ft | 396 kts | 227° |
| 2026-04-21 15:07 | 33.55029 | 133.42909 | 38096 ft | 397 kts | 227° |
| 2026-04-21 15:07 | 33.50806 | 133.38582 | 38092 ft | 398 kts | 226° |
| 2026-04-21 15:08 | 33.46592 | 133.34268 | 38086 ft | 399 kts | 226° |
| 2026-04-21 15:08 | 33.42365 | 133.29947 | 38101 ft | 400 kts | 226° |
| 2026-04-21 15:09 | 33.38121 | 133.25615 | 38104 ft | 401 kts | 226° |
| 2026-04-21 15:09 | 33.33838 | 133.21249 | 38124 ft | 402 kts | 226° |
| 2026-04-21 15:10 | 33.29563 | 133.16897 | 38097 ft | 402 kts | 226° |
| 2026-04-21 15:10 | 33.25274 | 133.12537 | 38096 ft | 403 kts | 226° |
| 2026-04-21 15:11 | 33.21021 | 133.08218 | 38112 ft | 404 kts | 226° |
| 2026-04-21 15:11 | 33.16728 | 133.03865 | 38102 ft | 405 kts | 226° |
| 2026-04-21 15:12 | 33.12438 | 132.99520 | 38097 ft | 406 kts | 226° |
| 2026-04-21 15:12 | 33.08120 | 132.95154 | 38098 ft | 407 kts | 226° |
| 2026-04-21 15:13 | 33.03792 | 132.90783 | 38092 ft | 408 kts | 226° |
| 2026-04-21 15:13 | 32.99539 | 132.86494 | 38099 ft | 408 kts | 226° |
| 2026-04-21 15:14 | 32.95206 | 132.82128 | 38091 ft | 408 kts | 226° |
| 2026-04-21 15:14 | 32.90875 | 132.77772 | 38087 ft | 408 kts | 226° |
| 2026-04-21 15:15 | 32.86524 | 132.73400 | 38088 ft | 409 kts | 226° |
| 2026-04-21 15:15 | 32.82172 | 132.69035 | 38081 ft | 409 kts | 226° |
| 2026-04-21 15:16 | 32.77822 | 132.64675 | 38090 ft | 409 kts | 225° |
| 2026-04-21 15:16 | 32.73466 | 132.60318 | 38083 ft | 409 kts | 226° |
| 2026-04-21 15:17 | 32.69117 | 132.55972 | 38086 ft | 408 kts | 226° |
| 2026-04-21 15:17 | 32.64740 | 132.51604 | 38089 ft | 408 kts | 225° |
| 2026-04-21 15:18 | 32.60400 | 132.47278 | 38085 ft | 407 kts | 225° |
| 2026-04-21 15:18 | 32.56059 | 132.42957 | 38088 ft | 407 kts | 225° |
| 2026-04-21 15:19 | 32.51715 | 132.38639 | 38092 ft | 407 kts | 225° |
| 2026-04-21 15:19 | 32.47360 | 132.34316 | 38089 ft | 407 kts | 225° |
| 2026-04-21 15:20 | 32.43019 | 132.30012 | 37751 ft | 405 kts | 225° |
| 2026-04-21 15:20 | 32.40837 | 132.27849 | 36644 ft | 414 kts | 225° |
| 2026-04-21 15:20 | 32.38610 | 132.25646 | 35805 ft | 417 kts | 225° |
| 2026-04-21 15:21 | 32.36533 | 132.23287 | 35027 ft | 412 kts | 236° |
| 2026-04-21 15:21 | 32.34991 | 132.20484 | 34202 ft | 413 kts | 240° |
| 2026-04-21 15:21 | 32.33428 | 132.17587 | 33508 ft | 412 kts | 240° |
| 2026-04-21 15:21 | 32.31909 | 132.14733 | 32902 ft | 408 kts | 241° |
| 2026-04-21 15:22 | 32.30415 | 132.11893 | 32250 ft | 406 kts | 241° |
| 2026-04-21 15:22 | 32.28926 | 132.09046 | 31555 ft | 406 kts | 241° |
| 2026-04-21 15:22 | 32.27453 | 132.06223 | 31071 ft | 401 kts | 241° |
| 2026-04-21 15:22 | 32.26001 | 132.03442 | 30693 ft | 393 kts | 241° |
| 2026-04-21 15:23 | 32.24563 | 132.00688 | 30269 ft | 399 kts | 241° |
| 2026-04-21 15:23 | 32.23076 | 131.97843 | 29660 ft | 414 kts | 241° |
| 2026-04-21 15:23 | 32.21550 | 131.94926 | 28829 ft | 421 kts | 241° |
| 2026-04-21 15:23 | 32.20004 | 131.91972 | 27903 ft | 424 kts | 241° |
| 2026-04-21 15:24 | 32.18464 | 131.89031 | 27147 ft | 428 kts | 240° |
| 2026-04-21 15:24 | 32.16888 | 131.86024 | 26389 ft | 431 kts | 240° |
| 2026-04-21 15:24 | 32.15303 | 131.83003 | 25591 ft | 433 kts | 240° |
| 2026-04-21 15:24 | 32.13721 | 131.79987 | 24803 ft | 433 kts | 240° |
| 2026-04-21 15:25 | 32.12136 | 131.76970 | 24133 ft | 431 kts | 240° |
| 2026-04-21 15:25 | 32.10565 | 131.73983 | 23391 ft | 427 kts | 240° |
| 2026-04-21 15:25 | 32.09005 | 131.71016 | 22576 ft | 423 kts | 240° |
| 2026-04-21 15:25 | 32.07465 | 131.68090 | 21873 ft | 418 kts | 240° |
| 2026-04-21 15:26 | 32.05936 | 131.65190 | 21187 ft | 413 kts | 240° |
| 2026-04-21 15:26 | 32.04432 | 131.62337 | 20501 ft | 408 kts | 240° |
| 2026-04-21 15:26 | 32.02942 | 131.59514 | 19835 ft | 404 kts | 240° |
| 2026-04-21 15:26 | 32.01466 | 131.56719 | 19177 ft | 400 kts | 239° |
| 2026-04-21 15:27 | 32.00003 | 131.53949 | 18527 ft | 396 kts | 239° |
| 2026-04-21 15:27 | 31.98550 | 131.51203 | 17797 ft | 393 kts | 239° |
| 2026-04-21 15:27 | 31.97113 | 131.48488 | 17110 ft | 388 kts | 239° |
| 2026-04-21 15:27 | 31.95694 | 131.45808 | 16466 ft | 383 kts | 239° |
| 2026-04-21 15:28 | 31.94282 | 131.43155 | 15718 ft | 381 kts | 239° |
| 2026-04-21 15:28 | 31.92882 | 131.40533 | 15089 ft | 377 kts | 239° |
| 2026-04-21 15:28 | 31.91494 | 131.37936 | 14487 ft | 372 kts | 239° |
| 2026-04-21 15:28 | 31.90125 | 131.35375 | 13867 ft | 367 kts | 238° |
| 2026-04-21 15:29 | 31.88771 | 131.32844 | 13169 ft | 364 kts | 238° |
| 2026-04-21 15:29 | 31.87425 | 131.30331 | 12474 ft | 361 kts | 238° |
| 2026-04-21 15:29 | 31.86092 | 131.27842 | 11935 ft | 357 kts | 238° |
| 2026-04-21 15:29 | 31.84794 | 131.25420 | 11706 ft | 345 kts | 238° |
| 2026-04-21 15:30 | 31.83535 | 131.23073 | 11495 ft | 332 kts | 238° |
| 2026-04-21 15:30 | 31.82323 | 131.20815 | 11280 ft | 320 kts | 238° |
| 2026-04-21 15:30 | 31.81155 | 131.18639 | 11084 ft | 309 kts | 238° |
| 2026-04-21 15:30 | 31.80022 | 131.16532 | 10874 ft | 299 kts | 238° |
| 2026-04-21 15:31 | 31.78912 | 131.14468 | 10300 ft | 298 kts | 238° |
| 2026-04-21 15:31 | 31.77812 | 131.12421 | 9638 ft | 295 kts | 238° |
| 2026-04-21 15:31 | 31.76722 | 131.10397 | 8959 ft | 292 kts | 238° |
| 2026-04-21 15:31 | 31.75630 | 131.08368 | 8299 ft | 289 kts | 237° |
| 2026-04-21 15:32 | 31.75168 | 131.07507 | 8010 ft | 291 kts | 237° |
| 2026-04-21 15:32 | 31.74091 | 131.05500 | 7368 ft | 289 kts | 237° |
| 2026-04-21 15:32 | 31.73024 | 131.03516 | 6739 ft | 286 kts | 237° |
| 2026-04-21 15:32 | 31.71966 | 131.01544 | 6106 ft | 284 kts | 237° |
| 2026-04-21 15:33 | 31.70915 | 130.99589 | 5535 ft | 280 kts | 237° |
| 2026-04-21 15:33 | 31.69882 | 130.97669 | 5173 ft | 276 kts | 237° |
| 2026-04-21 15:33 | 31.68862 | 130.95773 | 4994 ft | 266 kts | 237° |
| 2026-04-21 15:33 | 31.67887 | 130.93961 | 4828 ft | 258 kts | 237° |
| 2026-04-21 15:34 | 31.67005 | 130.92169 | 4634 ft | 250 kts | 249° |
| 2026-04-21 15:34 | 31.66589 | 130.90223 | 4482 ft | 242 kts | 257° |
| 2026-04-21 15:34 | 31.66241 | 130.88336 | 4353 ft | 232 kts | 257° |
| 2026-04-21 15:34 | 31.66049 | 130.86464 | 4158 ft | 226 kts | 278° |
| 2026-04-21 15:35 | 31.66471 | 130.84741 | 3972 ft | 219 kts | 289° |
| 2026-04-21 15:35 | 31.66967 | 130.83047 | 3783 ft | 215 kts | 289° |
| 2026-04-21 15:35 | 31.67458 | 130.81439 | 3598 ft | 203 kts | 295° |
| 2026-04-21 15:35 | 31.68334 | 130.80236 | 3320 ft | 189 kts | 327° |
| 2026-04-21 15:36 | 31.69394 | 130.79380 | 3109 ft | 181 kts | 329° |
| 2026-04-21 15:36 | 31.70448 | 130.78624 | 2865 ft | 174 kts | 332° |
| 2026-04-21 15:36 | 31.71456 | 130.77944 | 2647 ft | 161 kts | 333° |
| 2026-04-21 15:36 | 31.72406 | 130.77305 | 2435 ft | 157 kts | 332° |
| 2026-04-21 15:37 | 31.73352 | 130.76666 | 2221 ft | 155 kts | 332° |
| 2026-04-21 15:37 | 31.74286 | 130.76034 | 2012 ft | 154 kts | 332° |
| 2026-04-21 15:37 | 31.75214 | 130.75402 | 1808 ft | 154 kts | 331° |
| 2026-04-21 15:37 | 31.76028 | 130.74826 | 1660 ft | 154 kts | 331° |
| 2026-04-21 15:38 | 31.76527 | 130.74477 | 1552 ft | 153 kts | 331° |
| 2026-04-21 15:38 | 31.77454 | 130.73845 | 1339 ft | 151 kts | 331° |
| 2026-04-21 15:38 | 31.78356 | 130.73251 | 1147 ft | 146 kts | 333° |
| 2026-04-21 15:38 | 31.79238 | 130.72678 | 953 ft | 142 kts | 332° |
| 2026-04-21 15:39 | 31.80039 | 130.72142 | 920 ft | 116 kts | 330° |
| 2026-04-21 15:39 | 31.80483 | 130.71837 | 918 ft | 35 kts | 322° |
| 2026-04-21 15:39 | 31.80488 | 130.71709 | 916 ft | 2 kts | 240° |
| 2026-04-21 15:39 | 31.80486 | 130.71705 | 915 ft | 0 kts | 240° |
| 2026-04-21 15:40 | 31.80483 | 130.71700 | 914 ft | 4 kts | 240° |
| 2026-04-21 15:40 | 31.80447 | 130.71658 | 909 ft | 10 kts | 206° |
| 2026-04-21 15:41 | 31.80424 | 130.71652 | 908 ft | 1 kts | 159° |
| 2026-04-21 15:41 | 31.80393 | 130.71668 | 906 ft | 10 kts | 156° |
| 2026-04-21 15:41 | 31.80317 | 130.71717 | 908 ft | 13 kts | 146° |
| 2026-04-21 15:41 | 31.80245 | 130.71769 | 911 ft | 3 kts | 138° |
| 2026-04-21 15:42 | 31.80223 | 130.71787 | 909 ft | 6 kts | 147° |
| 2026-04-21 15:42 | 31.80174 | 130.71814 | 907 ft | 10 kts | 179° |
| 2026-04-21 15:42 | 31.80131 | 130.71779 | 905 ft | 6 kts | 238° |
| 2026-04-21 15:42 | 31.80106 | 130.71730 | 904 ft | 5 kts | 239° |
| 2026-04-21 15:43 | 31.80100 | 130.71718 | 904 ft | 2 kts | 239° |
| 2026-04-21 15:43 | 31.80099 | 130.71717 | 904 ft | 0 kts | 239° |